NCAR-RAP Real-Time Weather Data

Output produced by METARs form (17 October 2018  16:48 UTC)
found at http://weather.rap.ucar.edu/surface/
 
RJSR 171000Z VRB02KT 9999 FEW030 07/06 Q1015
RJSR 170900Z 16004KT 9999 FEW030 09/06 Q1014
RJSR 170800Z 20004KT 9999 FEW030 11/06 Q1014
RJSR 170700Z 27007KT 9999 FEW030 13/06 Q1013
RJSR 170600Z 27008KT 9999 FEW040 14/06 Q1013
RJSR 170500Z 27007KT 240V310 9999 FEW040 15/06 Q1012
RJSR 170400Z 24006KT 160V280 9999 SCT040 15/08 Q1012
RJSR 170300Z 17004KT 120V220 9999 FEW020 SCT040 15/08 Q1013
RJSR 170200Z VRB02KT 9999 FEW020 SCT040 BKN050 13/13 Q1013
RJSR 170100Z VRB01KT 9999 FEW010 SCT015 BKN040 11/11 Q1013
RJSR 170000Z VRB02KT 9999 FEW005 SCT010 BKN015 11/11 Q1013
RJSR 162300Z VRB01KT 8000 FEW005 SCT007 BKN010 10/10 Q1013
RJSR 161000Z VRB01KT 6000 FEW001 SCT010 BKN/// 11/11 Q1014
RJSR 160900Z 16004KT 6000 FEW001 SCT010 BKN/// 12/12 Q1013
RJSR 160800Z 16003KT 100V200 9999 FEW015 BKN080 12/12 Q1014
RJSR 160700Z VRB02KT 9999 VCSH FEW020 SCT060 BKN070 14/14 Q1013
RJSR 160600Z 21004KT 9999 -SHRA FEW010 SCT030 BKN050 14/12 Q1013
RJSR 160535Z 29007KT 260V320 9999 R11/0800VP2000D +SHRA FEW010 SCT020 BKN030 14/14 Q1013 RMK 1ST010 3CU020 6CU030 A2992 RI++
RJSR 160500Z 33005KT 290V010 9999 FEW020 SCT025 BKN040 17/13 Q1013
RJSR 160400Z VRB01KT 9999 FEW020 SCT030 BKN080 17/12 Q1013
RJSR 160300Z VRB01KT 9999 FEW020 SCT030 BKN080 16/12 Q1013
RJSR 160200Z VRB01KT 9999 FEW015 SCT030 BKN080 14/14 Q1014
RJSR 160100Z VRB01KT 9999 FEW005 SCT030 BKN080 11/11 Q1015
RJSR 160000Z VRB02KT 8000 FEW003 SCT006 BKN040 10/10 Q1016
RJSR 152319Z VRB01KT 6000 FEW003 SCT005 BKN040 09/09 Q1016 RMK 1ST003 4ST005 5CU040 A3002
RJSR 152300Z 00000KT 4000 BCFG BR FEW001 BKN003 BKN040 08/08 Q1016
RJSR 151000Z VRB01KT 9999 FEW030 10/10 Q1017
RJSR 150900Z 00000KT 9999 FEW030 10/09 Q1017
RJSR 150800Z 16002KT 9999 FEW030 13/09 Q1017
RJSR 150700Z 30003KT 9999 FEW030 17/08 Q1017
RJSR 150600Z 29003KT 250V360 9999 FEW030 BKN/// 17/09 Q1017
RJSR 150500Z VRB02KT 9999 FEW030 BKN/// 17/09 Q1017